Meherrin, Virginia
Current Conditions -  °F | °C
As of 6:35 AM on Friday 31 Oct 2014 (Local Time) from KW31 Reporting Station
Scattered Clouds Scattered Clouds  
Wind Chill: 35°   Ceiling: Unl
Heat Index: 40°   Visibility: 10mi
Dew Point: 36°   Wind: 7mph
Humidity: 85%   Direction: 360°N
Pressure: 29.97"   Gusts: NA
Location:  37.1°N, 78.37°W
Report Text: KW31 311035Z AUTO 36006KT 10SM SCT045 05/02 A2997 RMK AO1 T00450022
Loading
Personal Weather Stations






























Interactive Weather Map
Tropical Storm Tracking
New forecast layout! Learn more

10-Day Weather Forecast

Advertisements
Track Severe Weather on mobile